sensor_id;sensor_type;location;lat;lon;timestamp;pressure;altitude;pressure_sealevel;temperature;humidity
75656;BME280;64252;51.094;13.714;2024-02-15T00:02:22;100672.84;;;18.60;49.98
75656;BME280;64252;51.094;13.714;2024-02-15T00:04:48;100675.94;;;18.69;49.66
75656;BME280;64252;51.094;13.714;2024-02-15T00:07:13;100674.16;;;18.75;49.18
75656;BME280;64252;51.094;13.714;2024-02-15T00:09:40;100676.28;;;18.01;51.04
75656;BME280;64252;51.094;13.714;2024-02-15T00:12:06;100669.69;;;18.04;51.32
75656;BME280;64252;51.094;13.714;2024-02-15T00:14:31;100673.34;;;18.55;50.17
75656;BME280;64252;51.094;13.714;2024-02-15T00:16:57;100670.00;;;18.33;50.71
75656;BME280;64252;51.094;13.714;2024-02-15T00:19:23;100675.88;;;17.99;51.54
75656;BME280;64252;51.094;13.714;2024-02-15T00:21:49;100670.31;;;18.38;50.52
75656;BME280;64252;51.094;13.714;2024-02-15T00:24:14;100679.81;;;18.09;51.26
75656;BME280;64252;51.094;13.714;2024-02-15T00:26:40;100676.66;;;18.50;50.29
75656;BME280;64252;51.094;13.714;2024-02-15T00:29:08;100676.94;;;18.59;50.34
75656;BME280;64252;51.094;13.714;2024-02-15T00:31:34;100677.34;;;18.34;50.77
75656;BME280;64252;51.094;13.714;2024-02-15T00:34:01;100670.31;;;18.38;50.89
75656;BME280;64252;51.094;13.714;2024-02-15T00:36:28;100675.97;;;18.19;51.30
75656;BME280;64252;51.094;13.714;2024-02-15T00:38:54;100666.09;;;18.70;50.10
75656;BME280;64252;51.094;13.714;2024-02-15T00:41:20;100667.81;;;18.87;49.41
75656;BME280;64252;51.094;13.714;2024-02-15T00:43:47;100664.56;;;18.85;49.49
75656;BME280;64252;51.094;13.714;2024-02-15T00:46:13;100673.44;;;18.91;49.49
75656;BME280;64252;51.094;13.714;2024-02-15T00:48:39;100660.91;;;19.04;49.06
75656;BME280;64252;51.094;13.714;2024-02-15T00:51:06;100661.44;;;18.33;50.63
75656;BME280;64252;51.094;13.714;2024-02-15T00:53:31;100659.44;;;18.76;49.90
75656;BME280;64252;51.094;13.714;2024-02-15T00:55:57;100666.47;;;18.25;50.87
75656;BME280;64252;51.094;13.714;2024-02-15T00:58:22;100663.19;;;18.73;49.67
75656;BME280;64252;51.094;13.714;2024-02-15T01:00:49;100669.94;;;18.83;49.09
75656;BME280;64252;51.094;13.714;2024-02-15T01:03:15;100662.25;;;18.57;49.97
75656;BME280;64252;51.094;13.714;2024-02-15T01:05:41;100664.03;;;18.70;49.31
75656;BME280;64252;51.094;13.714;2024-02-15T01:08:07;100662.94;;;18.84;49.32
75656;BME280;64252;51.094;13.714;2024-02-15T01:10:34;100660.47;;;19.06;48.84
75656;BME280;64252;51.094;13.714;2024-02-15T01:13:00;100658.56;;;18.99;48.86
75656;BME280;64252;51.094;13.714;2024-02-15T01:15:26;100665.09;;;19.00;48.89
75656;BME280;64252;51.094;13.714;2024-02-15T01:17:51;100666.84;;;19.13;48.52
75656;BME280;64252;51.094;13.714;2024-02-15T01:20:17;100668.09;;;18.93;48.93
75656;BME280;64252;51.094;13.714;2024-02-15T01:22:42;100662.38;;;18.93;49.04
75656;BME280;64252;51.094;13.714;2024-02-15T01:25:10;100662.72;;;17.51;52.37
75656;BME280;64252;51.094;13.714;2024-02-15T01:27:36;100658.00;;;18.18;51.18
75656;BME280;64252;51.094;13.714;2024-02-15T01:30:02;100667.22;;;18.29;50.55
75656;BME280;64252;51.094;13.714;2024-02-15T01:32:27;100655.75;;;18.76;49.60
75656;BME280;64252;51.094;13.714;2024-02-15T01:34:53;100651.88;;;18.86;49.12
75656;BME280;64252;51.094;13.714;2024-02-15T01:37:23;100656.25;;;18.71;49.34
75656;BME280;64252;51.094;13.714;2024-02-15T01:39:49;100660.94;;;18.61;49.41
75656;BME280;64252;51.094;13.714;2024-02-15T01:42:15;100654.75;;;18.86;48.90
75656;BME280;64252;51.094;13.714;2024-02-15T01:44:41;100650.03;;;18.76;48.94
75656;BME280;64252;51.094;13.714;2024-02-15T01:47:10;100653.13;;;18.85;48.99
75656;BME280;64252;51.094;13.714;2024-02-15T01:49:36;100654.06;;;19.18;48.15
75656;BME280;64252;51.094;13.714;2024-02-15T01:52:02;100648.44;;;18.28;50.33
75656;BME280;64252;51.094;13.714;2024-02-15T01:54:30;100645.34;;;18.85;49.22
75656;BME280;64252;51.094;13.714;2024-02-15T01:56:57;100647.63;;;18.94;49.04
75656;BME280;64252;51.094;13.714;2024-02-15T01:59:23;100651.56;;;18.61;49.65
75656;BME280;64252;51.094;13.714;2024-02-15T02:01:49;100649.44;;;17.95;51.58
75656;BME280;64252;51.094;13.714;2024-02-15T02:04:15;100643.59;;;17.79;51.96
75656;BME280;64252;51.094;13.714;2024-02-15T02:06:41;100647.53;;;17.85;52.02
75656;BME280;64252;51.094;13.714;2024-02-15T02:09:10;100642.72;;;18.28;50.65
75656;BME280;64252;51.094;13.714;2024-02-15T02:11:38;100640.00;;;18.45;49.66
75656;BME280;64252;51.094;13.714;2024-02-15T02:14:04;100642.22;;;18.57;50.05
75656;BME280;64252;51.094;13.714;2024-02-15T02:16:31;100643.22;;;18.00;51.09
75656;BME280;64252;51.094;13.714;2024-02-15T02:19:01;100643.19;;;17.50;52.85
75656;BME280;64252;51.094;13.714;2024-02-15T02:21:28;100655.03;;;18.72;49.77
75656;BME280;64252;51.094;13.714;2024-02-15T02:23:57;100645.47;;;17.62;52.85
75656;BME280;64252;51.094;13.714;2024-02-15T02:26:24;100645.06;;;17.87;52.32
75656;BME280;64252;51.094;13.714;2024-02-15T02:28:50;100642.03;;;18.44;50.59
75656;BME280;64252;51.094;13.714;2024-02-15T02:31:19;100629.78;;;19.06;49.00
75656;BME280;64252;51.094;13.714;2024-02-15T02:33:52;100633.38;;;19.30;48.29
75656;BME280;64252;51.094;13.714;2024-02-15T02:36:21;100650.47;;;19.34;48.10
75656;BME280;64252;51.094;13.714;2024-02-15T02:38:46;100638.28;;;19.29;48.41
75656;BME280;64252;51.094;13.714;2024-02-15T02:41:15;100636.44;;;19.39;48.18
75656;BME280;64252;51.094;13.714;2024-02-15T02:43:41;100644.72;;;19.53;47.79
75656;BME280;64252;51.094;13.714;2024-02-15T02:46:10;100642.44;;;19.45;48.19
75656;BME280;64252;51.094;13.714;2024-02-15T02:48:37;100642.50;;;19.61;47.84
75656;BME280;64252;51.094;13.714;2024-02-15T02:51:02;100641.19;;;19.46;48.16
75656;BME280;64252;51.094;13.714;2024-02-15T02:53:28;100632.66;;;18.87;49.28
75656;BME280;64252;51.094;13.714;2024-02-15T02:55:55;100637.78;;;18.95;49.59
75656;BME280;64252;51.094;13.714;2024-02-15T02:58:22;100634.84;;;19.18;49.25
75656;BME280;64252;51.094;13.714;2024-02-15T03:00:48;100638.59;;;19.15;48.98
75656;BME280;64252;51.094;13.714;2024-02-15T03:03:17;100634.75;;;19.02;49.10
75656;BME280;64252;51.094;13.714;2024-02-15T03:05:44;100641.34;;;19.39;48.21
75656;BME280;64252;51.094;13.714;2024-02-15T03:08:13;100640.44;;;19.42;48.50
75656;BME280;64252;51.094;13.714;2024-02-15T03:10:38;100633.69;;;18.76;49.91
75656;BME280;64252;51.094;13.714;2024-02-15T03:13:05;100637.56;;;19.25;49.07
75656;BME280;64252;51.094;13.714;2024-02-15T03:15:30;100632.03;;;19.35;48.64
75656;BME280;64252;51.094;13.714;2024-02-15T03:17:58;100629.16;;;18.56;50.43
75656;BME280;64252;51.094;13.714;2024-02-15T03:20:24;100639.31;;;19.19;49.38
75656;BME280;64252;51.094;13.714;2024-02-15T03:22:57;100636.19;;;19.50;48.32
75656;BME280;64252;51.094;13.714;2024-02-15T03:25:23;100623.84;;;18.97;49.66
75656;BME280;64252;51.094;13.714;2024-02-15T03:27:53;100621.28;;;18.83;49.75
75656;BME280;64252;51.094;13.714;2024-02-15T03:30:20;100626.88;;;19.46;48.37
75656;BME280;64252;51.094;13.714;2024-02-15T03:32:49;100633.00;;;19.48;48.04
75656;BME280;64252;51.094;13.714;2024-02-15T03:35:17;100624.88;;;19.43;48.55
75656;BME280;64252;51.094;13.714;2024-02-15T03:37:43;100624.97;;;19.39;48.34
75656;BME280;64252;51.094;13.714;2024-02-15T03:40:09;100625.88;;;19.72;47.89
75656;BME280;64252;51.094;13.714;2024-02-15T03:42:35;100616.66;;;19.45;48.70
75656;BME280;64252;51.094;13.714;2024-02-15T03:45:05;100619.50;;;18.89;49.94
75656;BME280;64252;51.094;13.714;2024-02-15T03:47:34;100626.41;;;19.11;49.54
75656;BME280;64252;51.094;13.714;2024-02-15T03:50:02;100630.66;;;18.83;50.13
75656;BME280;64252;51.094;13.714;2024-02-15T03:52:27;100627.69;;;19.26;49.32
75656;BME280;64252;51.094;13.714;2024-02-15T03:54:56;100632.38;;;19.56;48.43
75656;BME280;64252;51.094;13.714;2024-02-15T03:57:23;100629.59;;;18.97;49.63
75656;BME280;64252;51.094;13.714;2024-02-15T03:59:49;100634.03;;;18.98;49.76
75656;BME280;64252;51.094;13.714;2024-02-15T04:02:18;100639.25;;;19.59;48.60
75656;BME280;64252;51.094;13.714;2024-02-15T04:04:44;100635.22;;;19.20;49.07
75656;BME280;64252;51.094;13.714;2024-02-15T04:07:15;100639.34;;;19.55;48.55
75656;BME280;64252;51.094;13.714;2024-02-15T04:09:45;100639.84;;;18.95;49.70
75656;BME280;64252;51.094;13.714;2024-02-15T04:12:11;100636.69;;;18.89;50.29
75656;BME280;64252;51.094;13.714;2024-02-15T04:14:37;100644.44;;;19.48;48.75
75656;BME280;64252;51.094;13.714;2024-02-15T04:17:06;100644.13;;;19.62;48.34
75656;BME280;64252;51.094;13.714;2024-02-15T04:19:32;100640.78;;;18.88;49.96
75656;BME280;64252;51.094;13.714;2024-02-15T04:21:58;100643.19;;;19.29;49.21
75656;BME280;64252;51.094;13.714;2024-02-15T04:24:25;100645.47;;;18.98;49.81
75656;BME280;64252;51.094;13.714;2024-02-15T04:26:51;100643.75;;;19.60;48.58
75656;BME280;64252;51.094;13.714;2024-02-15T04:29:16;100639.66;;;19.77;47.99
75656;BME280;64252;51.094;13.714;2024-02-15T04:31:43;100652.19;;;19.67;48.30
75656;BME280;64252;51.094;13.714;2024-02-15T04:34:08;100634.81;;;19.74;48.18
75656;BME280;64252;51.094;13.714;2024-02-15T04:36:35;100649.31;;;19.83;48.01
75656;BME280;64252;51.094;13.714;2024-02-15T04:39:01;100641.91;;;19.86;47.66
75656;BME280;64252;51.094;13.714;2024-02-15T04:41:28;100639.09;;;19.66;48.42
75656;BME280;64252;51.094;13.714;2024-02-15T04:43:54;100639.28;;;19.75;48.02
75656;BME280;64252;51.094;13.714;2024-02-15T04:46:19;100650.59;;;19.82;48.01
75656;BME280;64252;51.094;13.714;2024-02-15T04:48:49;100645.22;;;19.84;47.87
75656;BME280;64252;51.094;13.714;2024-02-15T04:51:15;100647.31;;;19.28;49.31
75656;BME280;64252;51.094;13.714;2024-02-15T04:53:42;100644.91;;;18.87;50.63
75656;BME280;64252;51.094;13.714;2024-02-15T04:56:08;100640.47;;;19.22;49.71
75656;BME280;64252;51.094;13.714;2024-02-15T04:58:39;100645.69;;;19.27;49.11
75656;BME280;64252;51.094;13.714;2024-02-15T05:01:14;100647.06;;;19.39;49.28
75656;BME280;64252;51.094;13.714;2024-02-15T05:03:42;100646.88;;;19.29;49.35
75656;BME280;64252;51.094;13.714;2024-02-15T05:06:07;100653.06;;;19.64;48.37
75656;BME280;64252;51.094;13.714;2024-02-15T05:08:34;100657.22;;;19.23;49.46
75656;BME280;64252;51.094;13.714;2024-02-15T05:11:11;100648.03;;;19.52;48.60
75656;BME280;64252;51.094;13.714;2024-02-15T05:13:48;100655.00;;;19.51;48.87
75656;BME280;64252;51.094;13.714;2024-02-15T05:16:16;100649.03;;;19.42;48.73
75656;BME280;64252;51.094;13.714;2024-02-15T05:18:42;100656.69;;;19.84;47.91
75656;BME280;64252;51.094;13.714;2024-02-15T05:21:08;100659.91;;;19.86;47.83
75656;BME280;64252;51.094;13.714;2024-02-15T05:23:36;100657.63;;;19.78;47.88
75656;BME280;64252;51.094;13.714;2024-02-15T05:26:03;100662.13;;;19.43;48.68
75656;BME280;64252;51.094;13.714;2024-02-15T05:28:29;100667.28;;;19.12;49.51
75656;BME280;64252;51.094;13.714;2024-02-15T05:31:27;100661.78;;;19.01;49.79
75656;BME280;64252;51.094;13.714;2024-02-15T05:33:53;100652.91;;;19.35;49.50
75656;BME280;64252;51.094;13.714;2024-02-15T05:36:21;100659.56;;;19.28;49.20
75656;BME280;64252;51.094;13.714;2024-02-15T05:38:51;100662.56;;;19.61;48.64
75656;BME280;64252;51.094;13.714;2024-02-15T05:41:17;100655.19;;;19.04;49.39
75656;BME280;64252;51.094;13.714;2024-02-15T05:43:44;100662.41;;;18.69;50.87
75656;BME280;64252;51.094;13.714;2024-02-15T05:46:10;100658.50;;;18.83;50.34
75656;BME280;64252;51.094;13.714;2024-02-15T05:48:36;100664.16;;;19.06;50.24
75656;BME280;64252;51.094;13.714;2024-02-15T05:51:03;100666.91;;;19.29;49.59
75656;BME280;64252;51.094;13.714;2024-02-15T05:53:29;100663.78;;;19.60;48.73
75656;BME280;64252;51.094;13.714;2024-02-15T05:55:56;100667.56;;;19.73;48.61
75656;BME280;64252;51.094;13.714;2024-02-15T05:58:23;100675.50;;;19.85;48.11
75656;BME280;64252;51.094;13.714;2024-02-15T06:00:49;100670.22;;;20.00;48.04
75656;BME280;64252;51.094;13.714;2024-02-15T06:03:16;100679.97;;;20.02;47.99
75656;BME280;64252;51.094;13.714;2024-02-15T06:05:42;100681.00;;;19.60;49.50
75656;BME280;64252;51.094;13.714;2024-02-15T06:08:07;100682.41;;;18.26;52.88
75656;BME280;64252;51.094;13.714;2024-02-15T06:10:33;100683.13;;;18.77;51.99
75656;BME280;64252;51.094;13.714;2024-02-15T06:12:58;100686.56;;;18.88;51.86
75656;BME280;64252;51.094;13.714;2024-02-15T06:15:25;100687.72;;;18.71;52.29
75656;BME280;64252;51.094;13.714;2024-02-15T06:17:50;100686.91;;;18.24;53.18
75656;BME280;64252;51.094;13.714;2024-02-15T06:20:16;100696.81;;;18.42;53.39
75656;BME280;64252;51.094;13.714;2024-02-15T06:22:48;100703.97;;;18.04;53.97
75656;BME280;64252;51.094;13.714;2024-02-15T06:25:14;100692.53;;;19.17;51.63
75656;BME280;64252;51.094;13.714;2024-02-15T06:27:45;100695.75;;;18.56;52.96
75656;BME280;64252;51.094;13.714;2024-02-15T06:30:12;100708.88;;;18.77;52.55
75656;BME280;64252;51.094;13.714;2024-02-15T06:32:59;100710.59;;;19.14;51.67
75656;BME280;64252;51.094;13.714;2024-02-15T06:35:43;100706.75;;;19.44;50.87
75656;BME280;64252;51.094;13.714;2024-02-15T06:38:27;100707.97;;;19.79;50.24
75656;BME280;64252;51.094;13.714;2024-02-15T06:41:16;100701.19;;;18.94;52.59
75656;BME280;64252;51.094;13.714;2024-02-15T06:43:44;100708.69;;;19.07;52.15
75656;BME280;64252;51.094;13.714;2024-02-15T06:46:09;100712.97;;;19.58;50.88
75656;BME280;64252;51.094;13.714;2024-02-15T06:48:36;100711.47;;;19.50;51.25
75656;BME280;64252;51.094;13.714;2024-02-15T06:51:02;100708.16;;;18.23;54.34
75656;BME280;64252;51.094;13.714;2024-02-15T06:53:29;100698.50;;;19.06;52.72
75656;BME280;64252;51.094;13.714;2024-02-15T06:55:56;100701.88;;;19.01;52.74
75656;BME280;64252;51.094;13.714;2024-02-15T06:58:22;100708.13;;;19.16;52.43
75656;BME280;64252;51.094;13.714;2024-02-15T07:00:48;100699.13;;;18.94;52.93
75656;BME280;64252;51.094;13.714;2024-02-15T07:03:13;100704.94;;;19.50;51.78
75656;BME280;64252;51.094;13.714;2024-02-15T07:05:42;100703.16;;;19.16;52.51
75656;BME280;64252;51.094;13.714;2024-02-15T07:08:09;100698.25;;;19.17;52.15
75656;BME280;64252;51.094;13.714;2024-02-15T07:10:40;100699.50;;;19.55;51.40
75656;BME280;64252;51.094;13.714;2024-02-15T07:13:06;100704.63;;;20.00;50.42
75656;BME280;64252;51.094;13.714;2024-02-15T07:15:33;100698.84;;;19.28;52.01
75656;BME280;64252;51.094;13.714;2024-02-15T07:18:06;100701.78;;;19.24;51.93
75656;BME280;64252;51.094;13.714;2024-02-15T07:20:33;100699.84;;;19.77;50.84
75656;BME280;64252;51.094;13.714;2024-02-15T07:22:59;100699.47;;;19.75;50.84
75656;BME280;64252;51.094;13.714;2024-02-15T07:25:24;100691.78;;;19.88;50.63
75656;BME280;64252;51.094;13.714;2024-02-15T07:27:50;100692.31;;;19.83;50.78
75656;BME280;64252;51.094;13.714;2024-02-15T07:30:15;100696.88;;;20.33;49.67
75656;BME280;64252;51.094;13.714;2024-02-15T07:32:41;100707.00;;;19.29;51.94
75656;BME280;64252;51.094;13.714;2024-02-15T07:35:07;100693.69;;;19.95;50.67
75656;BME280;64252;51.094;13.714;2024-02-15T07:37:33;100696.13;;;20.12;50.01
75656;BME280;64252;51.094;13.714;2024-02-15T07:39:59;100707.00;;;20.37;49.62
75656;BME280;64252;51.094;13.714;2024-02-15T07:42:25;100715.31;;;20.64;49.10
75656;BME280;64252;51.094;13.714;2024-02-15T07:44:51;100709.19;;;20.30;49.53
75656;BME280;64252;51.094;13.714;2024-02-15T07:47:18;100710.38;;;20.48;49.15
75656;BME280;64252;51.094;13.714;2024-02-15T07:49:46;100711.06;;;20.85;48.48
75656;BME280;64252;51.094;13.714;2024-02-15T07:52:12;100723.31;;;21.01;48.09
75656;BME280;64252;51.094;13.714;2024-02-15T07:54:40;100716.56;;;20.14;49.63
75656;BME280;64252;51.094;13.714;2024-02-15T07:57:05;100728.41;;;20.49;48.95
75656;BME280;64252;51.094;13.714;2024-02-15T07:59:31;100715.50;;;20.57;49.02
75656;BME280;64252;51.094;13.714;2024-02-15T08:01:56;100709.97;;;20.34;49.89
75656;BME280;64252;51.094;13.714;2024-02-15T08:04:23;100710.59;;;19.89;51.22
75656;BME280;64252;51.094;13.714;2024-02-15T08:06:50;100708.84;;;19.95;51.55
75656;BME280;64252;51.094;13.714;2024-02-15T08:09:19;100708.22;;;20.20;50.86
75656;BME280;64252;51.094;13.714;2024-02-15T08:11:49;100707.88;;;19.66;51.96
75656;BME280;64252;51.094;13.714;2024-02-15T08:14:14;100702.13;;;19.66;51.73
75656;BME280;64252;51.094;13.714;2024-02-15T08:16:40;100701.81;;;19.80;51.19
75656;BME280;64252;51.094;13.714;2024-02-15T08:19:06;100686.59;;;20.15;51.00
75656;BME280;64252;51.094;13.714;2024-02-15T08:21:33;100689.16;;;20.62;49.66
75656;BME280;64252;51.094;13.714;2024-02-15T08:24:04;100679.72;;;20.29;50.46
75656;BME280;64252;51.094;13.714;2024-02-15T08:26:36;100681.00;;;20.44;49.93
75656;BME280;64252;51.094;13.714;2024-02-15T08:29:03;100677.31;;;20.44;50.34
75656;BME280;64252;51.094;13.714;2024-02-15T08:31:29;100676.22;;;19.89;51.35
75656;BME280;64252;51.094;13.714;2024-02-15T08:33:59;100678.47;;;20.91;49.72
75656;BME280;64252;51.094;13.714;2024-02-15T08:36:25;100684.72;;;21.31;48.37
75656;BME280;64252;51.094;13.714;2024-02-15T08:38:51;100683.81;;;21.34;48.29
75656;BME280;64252;51.094;13.714;2024-02-15T08:41:17;100680.94;;;22.01;47.18
75656;BME280;64252;51.094;13.714;2024-02-15T08:46:18;100688.16;;;20.97;49.25
75656;BME280;64252;51.094;13.714;2024-02-15T08:48:45;100692.53;;;21.18;48.67
75656;BME280;64252;51.094;13.714;2024-02-15T08:51:12;100694.59;;;21.84;47.68
75656;BME280;64252;51.094;13.714;2024-02-15T08:53:38;100697.81;;;21.86;47.43
75656;BME280;64252;51.094;13.714;2024-02-15T08:56:06;100690.63;;;22.54;46.11
75656;BME280;64252;51.094;13.714;2024-02-15T08:58:34;100693.03;;;22.68;45.56
75656;BME280;64252;51.094;13.714;2024-02-15T09:01:00;100686.09;;;22.19;46.81
75656;BME280;64252;51.094;13.714;2024-02-15T09:03:25;100690.34;;;23.08;44.91
75656;BME280;64252;51.094;13.714;2024-02-15T09:05:51;100693.81;;;22.69;46.09
75656;BME280;64252;51.094;13.714;2024-02-15T09:08:17;100694.41;;;22.77;45.99
75656;BME280;64252;51.094;13.714;2024-02-15T09:10:49;100687.94;;;23.29;45.11
75656;BME280;64252;51.094;13.714;2024-02-15T09:13:14;100689.41;;;23.33;44.73
75656;BME280;64252;51.094;13.714;2024-02-15T09:15:40;100704.31;;;22.63;45.38
75656;BME280;64252;51.094;13.714;2024-02-15T09:18:07;100701.22;;;22.57;45.48
75656;BME280;64252;51.094;13.714;2024-02-15T09:20:35;100706.00;;;23.07;45.63
75656;BME280;64252;51.094;13.714;2024-02-15T09:23:03;100692.84;;;23.19;44.91
75656;BME280;64252;51.094;13.714;2024-02-15T09:25:34;100698.22;;;23.51;44.06
75656;BME280;64252;51.094;13.714;2024-02-15T09:28:01;100696.72;;;23.25;44.88
75656;BME280;64252;51.094;13.714;2024-02-15T09:30:28;100692.22;;;22.68;45.84
75656;BME280;64252;51.094;13.714;2024-02-15T09:32:54;100698.31;;;22.70;45.05
75656;BME280;64252;51.094;13.714;2024-02-15T09:35:19;100704.53;;;23.03;44.64
75656;BME280;64252;51.094;13.714;2024-02-15T09:37:47;100700.38;;;22.69;45.76
75656;BME280;64252;51.094;13.714;2024-02-15T09:40:18;100702.19;;;22.29;46.59
75656;BME280;64252;51.094;13.714;2024-02-15T09:42:44;100704.44;;;22.59;46.33
75656;BME280;64252;51.094;13.714;2024-02-15T09:45:11;100701.28;;;22.79;45.30
75656;BME280;64252;51.094;13.714;2024-02-15T09:47:41;100702.41;;;23.59;44.19
75656;BME280;64252;51.094;13.714;2024-02-15T09:50:12;100700.78;;;23.80;44.02
75656;BME280;64252;51.094;13.714;2024-02-15T09:52:59;100710.19;;;23.50;44.28
75656;BME280;64252;51.094;13.714;2024-02-15T09:55:28;100704.81;;;22.49;46.41
75656;BME280;64252;51.094;13.714;2024-02-15T09:57:54;100712.03;;;22.79;45.64
75656;BME280;64252;51.094;13.714;2024-02-15T10:00:20;100704.69;;;23.43;44.56
75656;BME280;64252;51.094;13.714;2024-02-15T10:02:52;100700.28;;;22.60;46.02
75656;BME280;64252;51.094;13.714;2024-02-15T10:05:19;100706.19;;;23.47;44.41
75656;BME280;64252;51.094;13.714;2024-02-15T10:07:45;100696.72;;;23.03;45.00
75656;BME280;64252;51.094;13.714;2024-02-15T10:12:46;100696.84;;;23.65;44.29
75656;BME280;64252;51.094;13.714;2024-02-15T10:15:27;100693.56;;;23.76;43.84
75656;BME280;64252;51.094;13.714;2024-02-15T10:17:55;100690.19;;;23.77;43.57
75656;BME280;64252;51.094;13.714;2024-02-15T10:20:21;100693.13;;;22.78;45.79
75656;BME280;64252;51.094;13.714;2024-02-15T10:22:46;100694.50;;;23.07;44.61
75656;BME280;64252;51.094;13.714;2024-02-15T10:25:13;100691.56;;;23.94;43.57
75656;BME280;64252;51.094;13.714;2024-02-15T10:27:42;100692.84;;;24.33;42.47
75656;BME280;64252;51.094;13.714;2024-02-15T10:30:14;100692.59;;;24.68;41.77
75656;BME280;64252;51.094;13.714;2024-02-15T10:32:40;100703.38;;;24.76;41.52
75656;BME280;64252;51.094;13.714;2024-02-15T10:35:06;100698.03;;;24.08;42.83
75656;BME280;64252;51.094;13.714;2024-02-15T10:37:32;100702.78;;;24.32;42.77
75656;BME280;64252;51.094;13.714;2024-02-15T10:40:04;100697.19;;;24.38;42.36
75656;BME280;64252;51.094;13.714;2024-02-15T10:42:33;100693.16;;;23.65;43.84
75656;BME280;64252;51.094;13.714;2024-02-15T10:45:05;100683.97;;;23.88;43.06
75656;BME280;64252;51.094;13.714;2024-02-15T10:47:31;100687.28;;;23.68;43.19
75656;BME280;64252;51.094;13.714;2024-02-15T10:49:57;100684.81;;;22.80;45.12
75656;BME280;64252;51.094;13.714;2024-02-15T10:52:29;100685.13;;;23.59;43.62
75656;BME280;64252;51.094;13.714;2024-02-15T10:55:03;100686.59;;;23.42;43.57
75656;BME280;64252;51.094;13.714;2024-02-15T10:57:31;100674.91;;;22.81;45.05
75656;BME280;64252;51.094;13.714;2024-02-15T11:02:30;100674.53;;;22.44;45.92
75656;BME280;64252;51.094;13.714;2024-02-15T11:05:07;100670.78;;;22.82;44.93
75656;BME280;64252;51.094;13.714;2024-02-15T11:07:37;100667.34;;;22.61;45.58
75656;BME280;64252;51.094;13.714;2024-02-15T11:10:05;100676.09;;;22.70;45.29
75656;BME280;64252;51.094;13.714;2024-02-15T11:12:33;100667.72;;;23.19;44.44
75656;BME280;64252;51.094;13.714;2024-02-15T11:14:59;100665.56;;;23.11;44.13
75656;BME280;64252;51.094;13.714;2024-02-15T11:20:03;100671.72;;;23.00;44.64
75656;BME280;64252;51.094;13.714;2024-02-15T11:22:34;100672.19;;;23.42;43.28
75656;BME280;64252;51.094;13.714;2024-02-15T11:25:02;100665.84;;;23.26;43.65
75656;BME280;64252;51.094;13.714;2024-02-15T11:27:36;100665.00;;;22.82;44.64
75656;BME280;64252;51.094;13.714;2024-02-15T11:30:04;100667.50;;;23.14;44.04
75656;BME280;64252;51.094;13.714;2024-02-15T11:32:45;100662.03;;;23.07;44.25
75656;BME280;64252;51.094;13.714;2024-02-15T11:35:20;100652.03;;;22.99;44.55
75656;BME280;64252;51.094;13.714;2024-02-15T11:40:22;100644.09;;;23.55;42.93
75656;BME280;64252;51.094;13.714;2024-02-15T11:42:53;100649.88;;;23.55;43.64
75656;BME280;64252;51.094;13.714;2024-02-15T11:45:19;100650.09;;;24.01;42.36
75656;BME280;64252;51.094;13.714;2024-02-15T11:47:54;100642.78;;;22.35;45.97
75656;BME280;64252;51.094;13.714;2024-02-15T11:50:21;100639.16;;;22.22;46.58
75656;BME280;64252;51.094;13.714;2024-02-15T11:52:48;100642.47;;;22.67;45.84
75656;BME280;64252;51.094;13.714;2024-02-15T11:55:18;100647.09;;;23.83;43.23
75656;BME280;64252;51.094;13.714;2024-02-15T11:58:00;100639.28;;;24.23;42.02
75656;BME280;64252;51.094;13.714;2024-02-15T12:00:30;100648.66;;;24.05;41.87
75656;BME280;64252;51.094;13.714;2024-02-15T12:03:15;100649.75;;;22.59;45.98
75656;BME280;64252;51.094;13.714;2024-02-15T12:05:59;100639.72;;;21.54;48.38
75656;BME280;64252;51.094;13.714;2024-02-15T12:08:49;100636.69;;;22.67;45.70
75656;BME280;64252;51.094;13.714;2024-02-15T12:11:33;100641.53;;;23.36;44.06
75656;BME280;64252;51.094;13.714;2024-02-15T12:14:18;100631.09;;;22.64;46.00
75656;BME280;64252;51.094;13.714;2024-02-15T12:19:55;100630.78;;;24.20;42.67
75656;BME280;64252;51.094;13.714;2024-02-15T12:22:46;100638.50;;;23.92;43.29
75656;BME280;64252;51.094;13.714;2024-02-15T12:25:16;100632.78;;;24.10;42.15
75656;BME280;64252;51.094;13.714;2024-02-15T12:27:42;100626.97;;;24.50;41.96
75656;BME280;64252;51.094;13.714;2024-02-15T12:30:18;100634.22;;;24.91;41.24
75656;BME280;64252;51.094;13.714;2024-02-15T12:32:47;100632.63;;;25.08;40.51
75656;BME280;64252;51.094;13.714;2024-02-15T12:35:17;100615.53;;;25.38;40.06
75656;BME280;64252;51.094;13.714;2024-02-15T12:40:32;100623.06;;;25.35;41.17
75656;BME280;64252;51.094;13.714;2024-02-15T12:42:59;100617.66;;;25.01;40.56
75656;BME280;64252;51.094;13.714;2024-02-15T12:45:26;100612.22;;;23.90;42.60
75656;BME280;64252;51.094;13.714;2024-02-15T12:47:54;100618.72;;;24.21;41.94
75656;BME280;64252;51.094;13.714;2024-02-15T12:50:22;100609.72;;;24.10;42.48
75656;BME280;64252;51.094;13.714;2024-02-15T12:52:50;100614.13;;;24.60;41.43
75656;BME280;64252;51.094;13.714;2024-02-15T12:55:19;100614.31;;;24.84;40.95
75656;BME280;64252;51.094;13.714;2024-02-15T13:00:20;100612.22;;;24.75;41.52
75656;BME280;64252;51.094;13.714;2024-02-15T13:02:50;100605.31;;;25.09;40.67
75656;BME280;64252;51.094;13.714;2024-02-15T13:05:17;100611.69;;;25.31;40.04
75656;BME280;64252;51.094;13.714;2024-02-15T13:07:48;100619.50;;;25.49;40.08